Time;durP1;ratioP1;P1;durP2;ratioP2;P2;SDS_P1;SDS_P2;PMS_P1;PMS_P2;Temp;Humidity;BMP_temperature;BMP_pressure;BME280_temperature;BME280_humidity;BME280_pressure;Samples;Min_cycle;Max_cycle;Signal;HPM_P1;HPM_P2
2023/10/19 00:01:09;;;;;;;1.87;1.77;;;;;;;;;;5035381;28;20179;-88
2023/10/19 00:03:34;;;;;;;2.30;2.10;;;;;;;;;;5027377;28;20191;-88
2023/10/19 00:05:59;;;;;;;3.33;2.60;;;;;;;;;;5034720;28;20211;-87
2023/10/19 00:08:25;;;;;;;3.53;2.63;;;;;;;;;;5025616;28;20192;-88
2023/10/19 00:11:10;;;;;;;3.60;2.60;;;;;;;;;;5032164;28;20233;-87
2023/10/19 00:13:36;;;;;;;2.50;2.30;;;;;;;;;;5034556;28;20195;-85
2023/10/19 00:16:07;;;;;;;3.97;2.60;;;;;;;;;;5035666;28;20195;-84
2023/10/19 00:18:34;;;;;;;3.00;2.70;;;;;;;;;;5037284;28;20199;-85
2023/10/19 00:21:04;;;;;;;3.23;2.53;;;;;;;;;;5026677;28;20185;-85
2023/10/19 00:23:31;;;;;;;5.27;3.07;;;;;;;;;;5037615;28;20243;-86
2023/10/19 00:25:59;;;;;;;6.10;3.10;;;;;;;;;;5032761;28;20179;-88
2023/10/19 00:28:28;;;;;;;4.27;3.23;;;;;;;;;;5037530;28;20212;-86
2023/10/19 00:30:59;;;;;;;4.10;2.80;;;;;;;;;;5049452;28;20177;-86
2023/10/19 00:33:28;;;;;;;4.87;3.10;;;;;;;;;;5030022;28;20269;-86
2023/10/19 00:36:10;;;;;;;7.07;3.47;;;;;;;;;;5027004;28;20188;-83
2023/10/19 00:41:21;;;;;;;3.57;3.23;;;;;;;;;;5048389;28;20185;-86
2023/10/19 00:43:48;;;;;;;3.33;2.97;;;;;;;;;;5027789;28;20184;-84
2023/10/19 00:48:45;;;;;;;3.67;3.33;;;;;;;;;;5048481;28;20190;-85
2023/10/19 00:51:26;;;;;;;5.67;3.20;;;;;;;;;;5049134;28;20274;-86
2023/10/19 00:53:51;;;;;;;5.40;3.03;;;;;;;;;;5028208;28;20178;-85
2023/10/19 00:56:19;;;;;;;6.83;3.70;;;;;;;;;;5052345;28;20240;-83
2023/10/19 00:58:52;;;;;;;4.30;3.47;;;;;;;;;;5037365;28;20187;-85
2023/10/19 01:01:19;;;;;;;5.73;3.60;;;;;;;;;;5033127;28;20182;-85
2023/10/19 01:03:45;;;;;;;5.07;3.33;;;;;;;;;;5060702;28;20215;-85
2023/10/19 01:06:10;;;;;;;6.87;3.43;;;;;;;;;;5037277;28;20223;-83
2023/10/19 01:08:42;;;;;;;4.00;3.60;;;;;;;;;;5037743;28;20187;-84
2023/10/19 01:11:11;;;;;;;5.67;3.50;;;;;;;;;;5036217;28;20197;-85
2023/10/19 01:13:44;;;;;;;5.33;3.30;;;;;;;;;;5053719;28;20208;-84
2023/10/19 01:16:15;;;;;;;3.77;2.70;;;;;;;;;;5036110;28;20351;-83
2023/10/19 01:18:43;;;;;;;3.63;3.33;;;;;;;;;;5034113;28;20184;-84
2023/10/19 01:21:08;;;;;;;4.97;3.50;;;;;;;;;;5055005;28;20317;-86
2023/10/19 01:23:35;;;;;;;4.83;3.53;;;;;;;;;;5032080;28;20278;-87
2023/10/19 01:26:03;;;;;;;3.80;3.37;;;;;;;;;;5029008;28;20236;-86
2023/10/19 01:31:07;;;;;;;5.23;3.33;;;;;;;;;;5045785;28;20333;-84
2023/10/19 01:33:34;;;;;;;3.83;3.53;;;;;;;;;;5031663;28;20307;-85
2023/10/19 01:36:11;;;;;;;5.80;3.30;;;;;;;;;;5029724;28;20202;-85
2023/10/19 01:38:37;;;;;;;3.97;3.57;;;;;;;;;;5032217;28;20244;-83
2023/10/19 01:41:13;;;;;;;4.20;3.30;;;;;;;;;;5041423;28;20238;-83
2023/10/19 01:43:48;;;;;;;4.70;3.20;;;;;;;;;;5038904;28;20251;-85
2023/10/19 01:46:25;;;;;;;3.80;3.20;;;;;;;;;;5032928;28;20189;-86
2023/10/19 01:48:55;;;;;;;4.70;3.73;;;;;;;;;;5041883;28;20220;-84
2023/10/19 01:51:21;;;;;;;6.70;3.90;;;;;;;;;;5034833;28;20196;-86
2023/10/19 01:53:46;;;;;;;5.13;3.30;;;;;;;;;;5031036;28;20187;-85
2023/10/19 01:56:12;;;;;;;4.00;3.20;;;;;;;;;;5029894;28;20200;-85
2023/10/19 01:58:39;;;;;;;5.73;3.27;;;;;;;;;;5031155;28;20188;-85
2023/10/19 02:01:14;;;;;;;6.07;3.47;;;;;;;;;;5030613;28;20178;-84
2023/10/19 02:03:42;;;;;;;9.00;4.97;;;;;;;;;;5048283;28;20260;-84
2023/10/19 02:06:20;;;;;;;3.70;2.97;;;;;;;;;;5036650;28;20185;-86
2023/10/19 02:08:56;;;;;;;4.00;3.60;;;;;;;;;;5029617;28;20264;-85
2023/10/19 02:11:25;;;;;;;4.27;3.30;;;;;;;;;;5046882;28;20169;-84
2023/10/19 02:13:52;;;;;;;5.37;3.07;;;;;;;;;;5036984;28;20213;-83
2023/10/19 02:16:21;;;;;;;3.20;2.93;;;;;;;;;;5031984;28;20206;-85
2023/10/19 02:18:46;;;;;;;5.00;3.27;;;;;;;;;;5034054;28;20172;-85
2023/10/19 02:21:12;;;;;;;3.97;3.57;;;;;;;;;;5034109;28;20192;-83
2023/10/19 02:23:39;;;;;;;4.07;2.93;;;;;;;;;;5031556;28;20260;-84
2023/10/19 02:26:04;;;;;;;4.20;3.20;;;;;;;;;;5040177;28;20257;-83
2023/10/19 02:28:51;;;;;;;5.67;2.80;;;;;;;;;;5042385;28;20212;-84
2023/10/19 02:31:19;;;;;;;4.83;3.00;;;;;;;;;;5032328;28;20179;-84
2023/10/19 02:34:00;;;;;;;3.20;3.00;;;;;;;;;;5029136;28;20188;-84
2023/10/19 02:36:30;;;;;;;3.60;2.50;;;;;;;;;;5032037;28;20193;-84
2023/10/19 02:38:58;;;;;;;3.10;2.73;;;;;;;;;;5030881;28;20215;-83
2023/10/19 02:41:26;;;;;;;3.60;2.83;;;;;;;;;;5025885;28;20202;-82
2023/10/19 02:44:01;;;;;;;4.50;2.80;;;;;;;;;;5028028;28;20225;-82
2023/10/19 02:46:27;;;;;;;3.50;2.67;;;;;;;;;;5021635;28;20180;-84
2023/10/19 02:48:53;;;;;;;3.73;3.13;;;;;;;;;;5028524;28;20201;-83
2023/10/19 02:51:19;;;;;;;4.47;3.60;;;;;;;;;;5042013;28;20182;-84
2023/10/19 02:53:44;;;;;;;3.60;3.30;;;;;;;;;;5033850;28;20196;-82
2023/10/19 02:56:16;;;;;;;4.47;3.13;;;;;;;;;;5035793;28;20213;-84
2023/10/19 02:58:42;;;;;;;3.67;3.00;;;;;;;;;;5035615;28;20293;-83
2023/10/19 03:01:17;;;;;;;4.40;3.00;;;;;;;;;;5027429;28;20190;-84
2023/10/19 03:03:43;;;;;;;6.77;3.10;;;;;;;;;;5035889;28;20185;-83
2023/10/19 03:06:09;;;;;;;4.47;3.67;;;;;;;;;;5047218;28;20226;-83
2023/10/19 03:08:35;;;;;;;4.20;3.67;;;;;;;;;;5029551;28;20182;-80
2023/10/19 03:11:04;;;;;;;3.67;3.30;;;;;;;;;;5031935;28;20193;-82
2023/10/19 03:13:29;;;;;;;5.67;3.33;;;;;;;;;;5032013;28;20175;-83
2023/10/19 03:15:54;;;;;;;2.93;2.67;;;;;;;;;;5041039;28;20311;-82
2023/10/19 03:18:19;;;;;;;3.40;3.10;;;;;;;;;;5029633;28;20193;-82
2023/10/19 03:20:45;;;;;;;3.83;3.37;;;;;;;;;;5032799;28;20182;-82
2023/10/19 03:23:10;;;;;;;5.87;3.70;;;;;;;;;;5028831;28;20193;-82
2023/10/19 03:25:49;;;;;;;5.63;3.53;;;;;;;;;;5042081;28;20281;-80
2023/10/19 03:28:16;;;;;;;6.50;3.30;;;;;;;;;;5038459;28;20192;-81
2023/10/19 03:30:41;;;;;;;5.33;3.30;;;;;;;;;;5043282;28;20187;-82
2023/10/19 03:33:12;;;;;;;4.57;2.70;;;;;;;;;;5026815;28;20245;-81
2023/10/19 03:35:41;;;;;;;5.30;3.40;;;;;;;;;;5028188;28;20229;-82
2023/10/19 03:38:24;;;;;;;4.30;3.00;;;;;;;;;;5041372;28;20229;-83
2023/10/19 03:40:59;;;;;;;5.80;3.60;;;;;;;;;;5030432;28;20274;-82
2023/10/19 03:43:27;;;;;;;3.10;2.80;;;;;;;;;;5049662;28;20185;-82
2023/10/19 03:45:52;;;;;;;4.03;3.00;;;;;;;;;;5034693;28;20205;-83
2023/10/19 03:48:23;;;;;;;3.57;2.80;;;;;;;;;;5031730;28;20217;-81
2023/10/19 03:50:51;;;;;;;2.80;2.60;;;;;;;;;;5045568;28;20277;-82
2023/10/19 03:53:17;;;;;;;3.10;2.50;;;;;;;;;;5031613;28;20213;-82
2023/10/19 03:55:43;;;;;;;3.20;2.87;;;;;;;;;;5032747;28;20202;-82
2023/10/19 03:58:12;;;;;;;3.53;2.53;;;;;;;;;;5037968;28;20208;-83
2023/10/19 04:00:37;;;;;;;3.53;2.97;;;;;;;;;;5035053;28;20213;-80
2023/10/19 04:03:02;;;;;;;3.60;3.07;;;;;;;;;;5047120;28;20230;-82
2023/10/19 04:05:28;;;;;;;2.90;2.70;;;;;;;;;;5037357;28;20218;-81
2023/10/19 04:07:57;;;;;;;3.83;2.87;;;;;;;;;;5028909;28;20289;-81
2023/10/19 04:11:08;;;;;;;2.63;2.40;;;;;;;;;;5025801;28;20182;-81
2023/10/19 04:13:14;;;;;;;3.83;2.90;;;;;;;;;;5042407;28;20205;-81
2023/10/19 04:15:39;;;;;;;3.27;2.83;;;;;;;;;;5045582;28;20198;-81
2023/10/19 04:18:10;;;;;;;4.73;2.73;;;;;;;;;;5029016;28;20188;-82
2023/10/19 04:20:57;;;;;;;5.13;3.00;;;;;;;;;;5028656;28;20186;-81
2023/10/19 04:23:22;;;;;;;2.80;2.53;;;;;;;;;;5037264;28;20226;-82
2023/10/19 04:25:47;;;;;;;5.67;2.67;;;;;;;;;;5024585;28;20201;-82
2023/10/19 04:28:16;;;;;;;4.80;3.13;;;;;;;;;;5027282;28;20185;-81
2023/10/19 04:30:41;;;;;;;3.27;2.70;;;;;;;;;;5020342;28;20201;-82
2023/10/19 04:33:10;;;;;;;2.93;2.60;;;;;;;;;;5024066;28;20190;-81
2023/10/19 04:35:41;;;;;;;4.03;2.60;;;;;;;;;;5033833;28;20204;-81
2023/10/19 04:38:23;;;;;;;4.63;3.30;;;;;;;;;;5051755;28;20261;-81
2023/10/19 04:40:48;;;;;;;2.97;2.70;;;;;;;;;;5060224;28;20211;-82
2023/10/19 04:43:14;;;;;;;2.70;2.50;;;;;;;;;;5043500;28;20180;-82
2023/10/19 04:45:39;;;;;;;2.70;2.50;;;;;;;;;;5041451;28;20228;-81
2023/10/19 04:48:06;;;;;;;2.47;2.27;;;;;;;;;;5039887;28;20203;-80
2023/10/19 04:50:31;;;;;;;2.27;2.03;;;;;;;;;;5037378;28;20251;-81
2023/10/19 04:52:56;;;;;;;3.37;2.40;;;;;;;;;;5037214;28;20247;-82
2023/10/19 04:55:21;;;;;;;3.47;2.77;;;;;;;;;;5031740;28;20213;-81
2023/10/19 04:57:47;;;;;;;3.50;2.33;;;;;;;;;;5042325;28;20211;-81
2023/10/19 05:00:13;;;;;;;3.77;2.60;;;;;;;;;;5044163;28;20234;-81
2023/10/19 05:02:38;;;;;;;4.03;2.33;;;;;;;;;;5034503;28;20171;-81
2023/10/19 05:05:03;;;;;;;3.20;2.67;;;;;;;;;;5033847;28;20185;-81
2023/10/19 05:07:29;;;;;;;2.70;2.50;;;;;;;;;;5040528;28;20267;-81
2023/10/19 05:09:54;;;;;;;3.77;2.73;;;;;;;;;;5031061;28;20189;-81
2023/10/19 05:12:19;;;;;;;3.50;2.50;;;;;;;;;;5034667;28;20181;-81
2023/10/19 05:14:45;;;;;;;5.60;2.80;;;;;;;;;;5033132;28;20182;-81
2023/10/19 05:17:10;;;;;;;3.13;2.37;;;;;;;;;;5029722;28;20231;-80
2023/10/19 05:19:36;;;;;;;3.50;2.50;;;;;;;;;;5029592;28;20209;-81
2023/10/19 05:22:03;;;;;;;2.50;2.27;;;;;;;;;;5041778;28;20200;-81
2023/10/19 05:24:28;;;;;;;5.37;2.70;;;;;;;;;;5032612;28;20206;-81
2023/10/19 05:26:53;;;;;;;2.93;2.60;;;;;;;;;;5057993;28;20225;-81
2023/10/19 05:29:19;;;;;;;4.50;2.40;;;;;;;;;;5040019;28;20179;-82
2023/10/19 05:31:44;;;;;;;2.80;2.57;;;;;;;;;;5044355;28;20234;-81
2023/10/19 05:34:09;;;;;;;3.50;2.63;;;;;;;;;;5044682;28;20208;-80
2023/10/19 05:36:35;;;;;;;2.97;2.50;;;;;;;;;;5037397;28;20342;-81
2023/10/19 05:39:01;;;;;;;4.10;3.20;;;;;;;;;;5061893;28;20231;-81
2023/10/19 05:41:26;;;;;;;4.27;3.07;;;;;;;;;;5041054;28;20185;-81
2023/10/19 05:43:53;;;;;;;3.77;2.60;;;;;;;;;;5037530;28;20178;-81
2023/10/19 05:46:21;;;;;;;3.93;2.87;;;;;;;;;;5032214;28;20187;-81
2023/10/19 05:48:46;;;;;;;4.43;2.50;;;;;;;;;;5044869;28;20173;-81
2023/10/19 05:51:11;;;;;;;4.80;2.40;;;;;;;;;;5032810;28;20218;-81
2023/10/19 05:53:37;;;;;;;5.23;2.63;;;;;;;;;;5035752;28;20176;-81
2023/10/19 05:56:02;;;;;;;3.07;2.33;;;;;;;;;;5032669;28;20194;-81
2023/10/19 05:58:27;;;;;;;3.57;2.33;;;;;;;;;;5028111;28;20184;-81
2023/10/19 06:00:53;;;;;;;3.60;3.23;;;;;;;;;;5034608;28;20246;-81
2023/10/19 06:03:19;;;;;;;2.93;2.63;;;;;;;;;;5036880;28;20172;-80
2023/10/19 06:05:44;;;;;;;3.37;2.83;;;;;;;;;;5033239;28;20272;-81
2023/10/19 06:08:09;;;;;;;2.87;2.67;;;;;;;;;;5037447;28;20177;-81
2023/10/19 06:10:35;;;;;;;4.20;2.80;;;;;;;;;;5036001;28;20176;-81
2023/10/19 06:13:00;;;;;;;4.33;2.63;;;;;;;;;;5035933;28;20180;-81
2023/10/19 06:15:25;;;;;;;2.40;2.10;;;;;;;;;;5028346;28;20202;-81
2023/10/19 06:17:51;;;;;;;2.33;2.00;;;;;;;;;;5031425;28;20208;-81
2023/10/19 06:20:19;;;;;;;2.50;2.27;;;;;;;;;;5027285;28;20292;-81
2023/10/19 06:22:51;;;;;;;3.40;2.10;;;;;;;;;;5031885;28;20190;-80
2023/10/19 06:25:21;;;;;;;4.23;2.50;;;;;;;;;;5033645;28;20188;-79
2023/10/19 06:27:46;;;;;;;3.50;2.10;;;;;;;;;;5033368;28;20193;-79
2023/10/19 06:30:17;;;;;;;4.63;2.10;;;;;;;;;;5056472;28;20184;-79
2023/10/19 06:32:42;;;;;;;3.40;2.37;;;;;;;;;;5039106;28;20184;-79
2023/10/19 06:35:07;;;;;;;5.33;3.20;;;;;;;;;;5032276;28;20201;-79
2023/10/19 06:37:33;;;;;;;7.60;2.37;;;;;;;;;;5032290;28;20230;-79
2023/10/19 06:39:58;;;;;;;2.30;2.10;;;;;;;;;;5050634;28;20273;-79
2023/10/19 06:42:25;;;;;;;3.67;2.10;;;;;;;;;;5041049;28;20172;-79
2023/10/19 06:44:53;;;;;;;2.43;2.23;;;;;;;;;;5032997;28;20405;-79
2023/10/19 06:47:18;;;;;;;2.80;2.03;;;;;;;;;;5033846;28;20175;-79
2023/10/19 06:49:43;;;;;;;2.43;2.23;;;;;;;;;;5051621;28;20180;-79
2023/10/19 06:52:11;;;;;;;2.63;2.10;;;;;;;;;;5033542;28;20197;-78
2023/10/19 06:54:37;;;;;;;2.80;2.40;;;;;;;;;;5046267;28;20192;-79
2023/10/19 06:57:03;;;;;;;2.57;2.07;;;;;;;;;;5050476;28;20239;-77
2023/10/19 06:59:29;;;;;;;3.70;2.47;;;;;;;;;;5050203;28;20224;-79
2023/10/19 07:01:54;;;;;;;5.43;2.40;;;;;;;;;;5031943;28;20173;-79
2023/10/19 07:04:19;;;;;;;2.80;2.07;;;;;;;;;;5057092;28;20169;-79
2023/10/19 07:06:46;;;;;;;3.10;2.63;;;;;;;;;;5034618;28;20181;-77
2023/10/19 07:09:12;;;;;;;2.73;2.03;;;;;;;;;;5035869;28;20177;-79
2023/10/19 07:11:38;;;;;;;3.03;2.00;;;;;;;;;;5057366;28;20169;-78
2023/10/19 07:14:06;;;;;;;2.43;2.20;;;;;;;;;;5056737;28;20281;-79
2023/10/19 07:16:31;;;;;;;2.53;2.13;;;;;;;;;;5034593;28;20212;-79
2023/10/19 07:18:59;;;;;;;3.10;2.17;;;;;;;;;;5055769;28;20260;-79
2023/10/19 07:21:24;;;;;;;2.17;1.93;;;;;;;;;;5038721;28;20168;-78
2023/10/19 07:23:52;;;;;;;2.43;2.23;;;;;;;;;;5032867;28;20309;-78
2023/10/19 07:26:19;;;;;;;3.17;1.80;;;;;;;;;;5039354;28;20193;-78
2023/10/19 07:28:44;;;;;;;3.27;2.00;;;;;;;;;;5057021;28;20170;-77
2023/10/19 07:31:15;;;;;;;3.30;2.13;;;;;;;;;;5035652;28;20186;-75
2023/10/19 07:33:45;;;;;;;2.97;1.90;;;;;;;;;;5038194;28;20174;-74
2023/10/19 07:36:16;;;;;;;2.47;2.07;;;;;;;;;;5051371;28;20220;-79
2023/10/19 07:38:47;;;;;;;3.50;2.10;;;;;;;;;;5038685;28;20229;-79
2023/10/19 07:41:12;;;;;;;2.73;1.77;;;;;;;;;;5031291;28;20274;-80
2023/10/19 07:43:38;;;;;;;5.37;2.77;;;;;;;;;;5037233;28;20255;-78
2023/10/19 07:46:03;;;;;;;3.70;2.10;;;;;;;;;;5030846;28;20274;-79
2023/10/19 07:48:28;;;;;;;3.03;2.10;;;;;;;;;;5054107;28;20172;-78
2023/10/19 07:50:54;;;;;;;2.50;1.63;;;;;;;;;;5052359;28;20204;-78
2023/10/19 07:53:19;;;;;;;3.07;1.63;;;;;;;;;;5031746;28;20178;-79
2023/10/19 07:55:44;;;;;;;1.77;1.40;;;;;;;;;;5034530;28;20206;-78
2023/10/19 07:58:10;;;;;;;1.50;1.40;;;;;;;;;;5030147;28;20184;-80
2023/10/19 08:00:35;;;;;;;2.47;1.70;;;;;;;;;;5033125;28;20265;-80
2023/10/19 08:03:01;;;;;;;3.70;1.93;;;;;;;;;;5034590;28;20185;-80
2023/10/19 08:05:27;;;;;;;2.10;1.57;;;;;;;;;;5041155;28;20183;-79
2023/10/19 08:07:53;;;;;;;1.80;1.30;;;;;;;;;;5028303;28;20189;-74
2023/10/19 08:10:19;;;;;;;1.60;1.40;;;;;;;;;;5054591;28;20261;-86
2023/10/19 08:12:47;;;;;;;1.30;1.20;;;;;;;;;;5034984;28;20174;-75
2023/10/19 08:15:13;;;;;;;5.90;1.93;;;;;;;;;;5041491;28;20225;-76
2023/10/19 08:17:39;;;;;;;3.20;1.83;;;;;;;;;;5052394;28;20198;-79
2023/10/19 08:20:09;;;;;;;2.83;2.20;;;;;;;;;;5034612;28;20174;-79
2023/10/19 08:22:37;;;;;;;2.97;2.30;;;;;;;;;;5032053;28;20176;-78
2023/10/19 08:25:11;;;;;;;3.90;2.57;;;;;;;;;;5049335;28;20175;-79
2023/10/19 08:27:41;;;;;;;2.67;2.33;;;;;;;;;;5036054;28;20371;-77
2023/10/19 08:30:08;;;;;;;5.20;2.53;;;;;;;;;;5054880;28;20266;-79
2023/10/19 08:32:34;;;;;;;3.50;2.50;;;;;;;;;;5039087;28;20190;-79
2023/10/19 08:35:00;;;;;;;2.77;2.00;;;;;;;;;;5056928;28;20200;-79
2023/10/19 08:37:26;;;;;;;2.13;1.93;;;;;;;;;;5028121;28;20313;-79
2023/10/19 08:39:51;;;;;;;2.80;1.90;;;;;;;;;;5049546;28;20258;-79
2023/10/19 08:42:16;;;;;;;2.80;2.13;;;;;;;;;;5029168;28;20170;-79
2023/10/19 08:44:41;;;;;;;3.90;1.70;;;;;;;;;;5032501;28;20170;-79
2023/10/19 08:47:08;;;;;;;2.10;1.67;;;;;;;;;;5038762;28;20174;-80
2023/10/19 08:49:33;;;;;;;7.70;1.80;;;;;;;;;;5029408;28;20233;-79
2023/10/19 08:52:00;;;;;;;2.63;1.30;;;;;;;;;;5052309;28;20201;-79
2023/10/19 08:54:25;;;;;;;6.50;1.40;;;;;;;;;;5030065;28;20174;-79
2023/10/19 08:56:51;;;;;;;3.27;1.57;;;;;;;;;;5032081;28;20195;-79
2023/10/19 08:59:16;;;;;;;1.30;1.20;;;;;;;;;;5032361;28;20175;-79
2023/10/19 09:01:45;;;;;;;1.40;1.30;;;;;;;;;;5050982;28;20197;-79
2023/10/19 09:04:11;;;;;;;1.97;1.10;;;;;;;;;;5033984;28;20271;-79
2023/10/19 09:06:42;;;;;;;1.53;1.23;;;;;;;;;;5036229;28;20205;-79
2023/10/19 09:09:19;;;;;;;1.70;1.30;;;;;;;;;;5037305;28;20191;-78
2023/10/19 09:11:44;;;;;;;1.30;1.20;;;;;;;;;;5051336;28;20178;-77
2023/10/19 09:14:12;;;;;;;1.50;1.20;;;;;;;;;;5036960;28;20251;-79
2023/10/19 09:16:38;;;;;;;2.47;1.30;;;;;;;;;;5036840;28;20221;-78
2023/10/19 09:19:03;;;;;;;1.50;1.27;;;;;;;;;;5045893;28;20181;-80
2023/10/19 09:21:29;;;;;;;2.23;1.20;;;;;;;;;;5040174;28;20208;-80
2023/10/19 09:23:55;;;;;;;1.90;0.97;;;;;;;;;;5038306;28;20211;-80
2023/10/19 09:26:21;;;;;;;1.10;1.00;;;;;;;;;;5038491;28;20207;-79
2023/10/19 09:28:48;;;;;;;1.30;1.20;;;;;;;;;;5059916;28;20222;-79
2023/10/19 09:31:13;;;;;;;1.83;1.10;;;;;;;;;;5040856;28;20183;-79
2023/10/19 09:33:43;;;;;;;2.43;1.00;;;;;;;;;;5040874;28;20189;-79
2023/10/19 09:36:15;;;;;;;1.20;1.10;;;;;;;;;;5052670;28;20198;-79
2023/10/19 09:38:43;;;;;;;2.17;1.07;;;;;;;;;;5043294;28;20248;-78
2023/10/19 09:41:28;;;;;;;1.23;1.13;;;;;;;;;;5053428;28;20258;-79
2023/10/19 09:43:58;;;;;;;0.93;0.90;;;;;;;;;;5033241;28;20174;-79
2023/10/19 09:46:26;;;;;;;2.47;1.30;;;;;;;;;;5040220;28;20193;-79
2023/10/19 09:48:51;;;;;;;1.10;1.00;;;;;;;;;;5056040;28;20184;-77
2023/10/19 09:51:19;;;;;;;1.83;1.13;;;;;;;;;;5054487;28;20682;-79
2023/10/19 09:53:45;;;;;;;1.30;1.20;;;;;;;;;;5053337;28;20173;-79
2023/10/19 09:56:15;;;;;;;2.20;2.00;;;;;;;;;;5053836;28;20192;-79
2023/10/19 09:58:44;;;;;;;2.53;2.33;;;;;;;;;;5046082;28;20232;-79
2023/10/19 10:01:13;;;;;;;2.93;2.40;;;;;;;;;;5035811;28;20176;-79
2023/10/19 10:03:44;;;;;;;2.83;2.60;;;;;;;;;;5039753;28;20169;-79
2023/10/19 10:06:11;;;;;;;3.30;2.80;;;;;;;;;;5039480;28;20188;-79
2023/10/19 10:08:38;;;;;;;3.63;2.70;;;;;;;;;;5055807;28;20184;-78
2023/10/19 10:11:13;;;;;;;2.70;2.50;;;;;;;;;;5033051;28;20217;-78
2023/10/19 10:13:40;;;;;;;2.70;2.50;;;;;;;;;;5052733;28;20176;-78
2023/10/19 10:16:06;;;;;;;4.47;2.53;;;;;;;;;;5049853;28;20201;-79
2023/10/19 10:18:32;;;;;;;3.70;2.23;;;;;;;;;;5037411;28;20179;-78
2023/10/19 10:21:20;;;;;;;2.00;1.80;;;;;;;;;;5038848;28;20262;-79
2023/10/19 10:23:48;;;;;;;1.90;1.80;;;;;;;;;;5042533;28;20220;-78
2023/10/19 10:26:14;;;;;;;2.70;2.00;;;;;;;;;;5033193;28;20169;-79
2023/10/19 10:28:40;;;;;;;2.60;1.70;;;;;;;;;;5035142;28;20184;-79
2023/10/19 10:31:08;;;;;;;2.03;1.53;;;;;;;;;;5049776;28;20184;-78
2023/10/19 10:33:37;;;;;;;3.93;1.90;;;;;;;;;;5032942;28;20173;-79
2023/10/19 10:36:05;;;;;;;4.17;2.30;;;;;;;;;;5032644;28;20194;-79
2023/10/19 10:38:33;;;;;;;3.10;2.03;;;;;;;;;;5038922;28;20241;-78
2023/10/19 10:40:58;;;;;;;1.80;1.67;;;;;;;;;;5054019;28;20173;-79
2023/10/19 10:43:23;;;;;;;2.73;1.83;;;;;;;;;;5032565;28;20250;-78
2023/10/19 10:45:48;;;;;;;2.40;1.63;;;;;;;;;;5033023;28;20178;-79
2023/10/19 10:48:15;;;;;;;1.93;1.57;;;;;;;;;;5032909;28;20275;-79
2023/10/19 10:50:41;;;;;;;1.60;1.50;;;;;;;;;;5035893;28;20264;-80
2023/10/19 10:53:07;;;;;;;2.33;1.60;;;;;;;;;;5053098;28;20192;-81
2023/10/19 10:55:32;;;;;;;2.10;1.60;;;;;;;;;;5033154;28;20205;-80
2023/10/19 10:57:57;;;;;;;2.97;1.70;;;;;;;;;;5029492;28;20209;-80
2023/10/19 11:00:26;;;;;;;1.77;1.47;;;;;;;;;;5035331;28;20230;-80
2023/10/19 11:03:04;;;;;;;3.87;1.37;;;;;;;;;;5033648;28;20199;-80
2023/10/19 11:05:31;;;;;;;2.33;1.30;;;;;;;;;;5054230;28;20176;-80
2023/10/19 11:08:07;;;;;;;1.23;1.13;;;;;;;;;;5037031;28;20200;-79
2023/10/19 11:10:33;;;;;;;2.03;1.13;;;;;;;;;;5030784;28;20184;-80
2023/10/19 11:13:05;;;;;;;1.50;1.37;;;;;;;;;;5048472;28;20183;-80
2023/10/19 11:15:31;;;;;;;1.23;1.13;;;;;;;;;;5049759;28;20201;-80
2023/10/19 11:17:57;;;;;;;3.60;1.23;;;;;;;;;;5032543;28;20177;-80
2023/10/19 11:20:23;;;;;;;3.00;1.30;;;;;;;;;;5054823;28;20251;-80
2023/10/19 11:22:50;;;;;;;1.40;1.30;;;;;;;;;;5042138;28;20168;-79
2023/10/19 11:25:27;;;;;;;1.43;1.20;;;;;;;;;;5032811;28;20181;-80
2023/10/19 11:27:54;;;;;;;3.03;2.40;;;;;;;;;;5033513;28;20318;-80
2023/10/19 11:30:23;;;;;;;2.33;1.80;;;;;;;;;;5035062;28;20272;-79
2023/10/19 11:32:52;;;;;;;1.87;1.20;;;;;;;;;;5040811;28;20175;-78
2023/10/19 11:35:18;;;;;;;1.43;1.30;;;;;;;;;;5051945;28;20270;-79
2023/10/19 11:37:47;;;;;;;4.10;1.40;;;;;;;;;;5050320;28;20308;-79
2023/10/19 11:40:13;;;;;;;4.33;1.70;;;;;;;;;;5031385;28;20254;-79
2023/10/19 11:42:38;;;;;;;3.40;2.00;;;;;;;;;;5049816;28;20319;-79
2023/10/19 11:45:06;;;;;;;2.53;1.80;;;;;;;;;;5032089;28;20181;-80
2023/10/19 11:47:31;;;;;;;2.10;1.90;;;;;;;;;;5050395;28;20172;-79
2023/10/19 11:49:56;;;;;;;2.00;1.80;;;;;;;;;;5049196;28;20185;-80
2023/10/19 11:52:22;;;;;;;5.20;2.10;;;;;;;;;;5032207;28;20253;-79
2023/10/19 11:54:48;;;;;;;3.93;2.00;;;;;;;;;;5032670;28;20263;-80
2023/10/19 11:57:13;;;;;;;2.40;2.07;;;;;;;;;;5031812;28;20276;-79
2023/10/19 11:59:38;;;;;;;2.50;2.30;;;;;;;;;;5047468;28;20169;-79
2023/10/19 12:02:06;;;;;;;3.57;1.90;;;;;;;;;;5033958;28;20193;-80
2023/10/19 12:04:32;;;;;;;2.87;2.50;;;;;;;;;;5048838;28;20184;-79
2023/10/19 12:06:57;;;;;;;5.03;2.83;;;;;;;;;;5031363;28;20204;-79
2023/10/19 12:09:24;;;;;;;2.97;2.73;;;;;;;;;;5031398;28;20263;-80
2023/10/19 12:11:53;;;;;;;2.97;2.70;;;;;;;;;;5030466;28;20180;-80
2023/10/19 12:14:18;;;;;;;2.83;2.63;;;;;;;;;;5032260;28;20182;-79
2023/10/19 12:16:45;;;;;;;3.27;3.00;;;;;;;;;;5056087;28;20189;-80
2023/10/19 12:19:10;;;;;;;4.20;3.50;;;;;;;;;;5051750;28;20207;-78
2023/10/19 12:21:37;;;;;;;3.43;3.13;;;;;;;;;;5056708;28;20653;-80
2023/10/19 12:24:04;;;;;;;4.17;3.10;;;;;;;;;;5047734;28;20188;-80
2023/10/19 12:26:30;;;;;;;2.77;2.33;;;;;;;;;;5036381;28;20210;-81
2023/10/19 12:28:55;;;;;;;4.70;1.77;;;;;;;;;;5036346;28;20185;-80
2023/10/19 12:31:22;;;;;;;2.40;2.20;;;;;;;;;;5035095;28;20310;-80
2023/10/19 12:33:47;;;;;;;2.23;1.57;;;;;;;;;;5036269;28;20186;-81
2023/10/19 12:38:50;;;;;;;3.37;2.77;;;;;;;;;;5049930;28;20237;-79
2023/10/19 12:41:17;;;;;;;2.97;2.07;;;;;;;;;;5035125;28;20286;-80
2023/10/19 12:43:42;;;;;;;1.70;1.60;;;;;;;;;;5052588;28;20263;-79
2023/10/19 12:46:08;;;;;;;2.17;1.80;;;;;;;;;;5034192;28;20206;-79
2023/10/19 12:48:34;;;;;;;2.20;1.70;;;;;;;;;;5050246;28;20264;-80
2023/10/19 12:51:01;;;;;;;3.83;2.40;;;;;;;;;;5048787;28;20188;-78
2023/10/19 12:53:27;;;;;;;1.40;1.30;;;;;;;;;;5050450;28;20303;-80
2023/10/19 12:55:52;;;;;;;1.80;1.70;;;;;;;;;;5031458;28;20299;-78
2023/10/19 12:58:19;;;;;;;1.57;1.47;;;;;;;;;;5035609;28;21164;-81
2023/10/19 13:00:45;;;;;;;1.97;1.40;;;;;;;;;;5053842;28;20204;-80
2023/10/19 13:03:16;;;;;;;2.13;1.40;;;;;;;;;;5050223;28;20181;-80
2023/10/19 13:05:42;;;;;;;0.80;0.80;;;;;;;;;;5029495;28;20181;-79
2023/10/19 13:08:08;;;;;;;2.30;1.40;;;;;;;;;;5038159;28;20493;-80
2023/10/19 13:10:34;;;;;;;1.60;1.50;;;;;;;;;;5039973;28;20174;-80
2023/10/19 13:13:04;;;;;;;1.20;1.10;;;;;;;;;;5031655;28;20230;-78
2023/10/19 13:15:34;;;;;;;1.90;1.80;;;;;;;;;;5047938;28;20326;-80
2023/10/19 13:17:59;;;;;;;1.60;1.30;;;;;;;;;;5031049;28;20179;-78
2023/10/19 13:20:25;;;;;;;1.73;1.47;;;;;;;;;;5051762;28;20260;-80
2023/10/19 13:22:51;;;;;;;1.80;1.70;;;;;;;;;;5033627;28;20176;-81
2023/10/19 13:25:17;;;;;;;1.93;1.60;;;;;;;;;;5052147;28;20204;-82
2023/10/19 13:27:44;;;;;;;2.70;1.60;;;;;;;;;;5052772;28;20193;-81
2023/10/19 13:30:13;;;;;;;2.47;1.50;;;;;;;;;;5053383;28;20190;-81
2023/10/19 13:32:38;;;;;;;1.83;1.57;;;;;;;;;;5054520;28;20162;-80
2023/10/19 13:35:04;;;;;;;2.00;1.73;;;;;;;;;;5032383;28;20286;-81
2023/10/19 13:37:30;;;;;;;2.17;1.20;;;;;;;;;;5034687;28;20224;-81
2023/10/19 13:39:55;;;;;;;1.97;1.60;;;;;;;;;;5042552;28;20178;-79
2023/10/19 13:42:21;;;;;;;1.77;1.67;;;;;;;;;;5040904;28;20175;-80
2023/10/19 13:44:49;;;;;;;1.30;1.20;;;;;;;;;;5034135;28;20207;-80
2023/10/19 13:47:15;;;;;;;1.70;1.10;;;;;;;;;;5032982;28;20192;-80
2023/10/19 13:49:41;;;;;;;1.87;1.47;;;;;;;;;;5052581;28;20217;-79
2023/10/19 13:52:08;;;;;;;2.50;1.10;;;;;;;;;;5034580;28;20205;-80
2023/10/19 13:54:33;;;;;;;1.57;1.40;;;;;;;;;;5049154;28;20249;-80
2023/10/19 13:56:59;;;;;;;1.67;1.57;;;;;;;;;;5040073;28;20189;-79
2023/10/19 13:59:24;;;;;;;2.27;1.90;;;;;;;;;;5043084;28;20196;-80
2023/10/19 14:01:50;;;;;;;2.33;2.13;;;;;;;;;;5052188;28;20283;-80
2023/10/19 14:04:16;;;;;;;2.27;2.10;;;;;;;;;;5060235;28;20309;-79
2023/10/19 14:06:42;;;;;;;2.00;1.90;;;;;;;;;;5053962;28;20184;-80
2023/10/19 14:09:12;;;;;;;1.57;1.40;;;;;;;;;;5041520;28;20184;-79
2023/10/19 14:11:37;;;;;;;1.50;1.40;;;;;;;;;;5038610;28;20322;-80
2023/10/19 14:14:03;;;;;;;1.87;1.53;;;;;;;;;;5056708;28;20278;-80
2023/10/19 14:16:28;;;;;;;1.60;1.50;;;;;;;;;;5038475;28;20204;-80
2023/10/19 14:18:53;;;;;;;1.40;1.30;;;;;;;;;;5054720;28;20264;-81
2023/10/19 14:21:20;;;;;;;1.40;1.30;;;;;;;;;;5037467;28;20268;-80
2023/10/19 14:23:45;;;;;;;1.17;1.10;;;;;;;;;;5047266;28;20173;-81
2023/10/19 14:26:11;;;;;;;1.73;1.47;;;;;;;;;;5031927;28;20192;-82
2023/10/19 14:28:38;;;;;;;12.67;2.30;;;;;;;;;;5036456;28;20262;-82
2023/10/19 14:31:07;;;;;;;5.17;2.10;;;;;;;;;;5044177;28;20181;-81
2023/10/19 14:33:34;;;;;;;2.90;2.03;;;;;;;;;;5031127;28;20338;-81
2023/10/19 14:36:00;;;;;;;3.13;2.00;;;;;;;;;;5037435;28;20206;-81
2023/10/19 14:38:27;;;;;;;19.50;3.43;;;;;;;;;;5029168;28;20225;-81
2023/10/19 14:40:53;;;;;;;7.57;2.30;;;;;;;;;;5035023;28;20168;-80
2023/10/19 14:43:18;;;;;;;33.70;4.90;;;;;;;;;;5036169;28;20274;-80
2023/10/19 14:45:43;;;;;;;14.77;4.10;;;;;;;;;;5036388;28;20247;-81
2023/10/19 14:48:10;;;;;;;3.47;2.30;;;;;;;;;;5032180;28;20191;-81
2023/10/19 14:50:37;;;;;;;2.47;2.27;;;;;;;;;;5042254;28;20257;-81
2023/10/19 14:53:02;;;;;;;1.97;1.70;;;;;;;;;;5034755;28;20239;-81
2023/10/19 14:55:28;;;;;;;4.20;3.80;;;;;;;;;;5031446;28;20197;-81